Terminal Aerodrome Forecast
Issued by NWS

Home | Current Version | Previous Version | Graphics & Text | Print | Product List | Glossary On
Versions: 1 2 3 4 5 6 7 8 9 10 11 12 13 14 15
000
FTUS43 KGRB 042300
TAFMTW
TAF
KMTW 042322Z 0500/0524 08006KT P6SM BKN250
     FM050800 04004KT P6SM SCT060 BKN200
     FM051500 09009KT P6SM BKN150=

USA.gov is the U.S. government's official web portal to all federal, state and local government web resources and services.